Time,TemperatureF,DewpointF,PressureIn,WindDirection,WindDirectionDegrees,WindSpeedMPH,WindSpeedGustMPH,Humidity,HourlyPrecipIn,Conditions,Clouds,dailyrainin,SoftwareType,DateUTC
2013-03-02 00:00:00,46.2,45.4,30.31,West,260,1.0,2.0,97,0.00,,,0.02,Wunderground v.1.15,2013-03-02 08:00:00,
2013-03-02 00:09:00,45.7,44.9,30.31,West,260,0.0,0.0,97,0.00,,,0.02,Wunderground v.1.15,2013-03-02 08:09:00,
2013-03-02 00:14:00,45.6,45.1,30.31,West,260,0.0,0.0,98,0.00,,,0.00,Wunderground v.1.15,2013-03-02 08:14:00,
2013-03-02 00:20:00,45.6,45.1,30.31,WSW,237,0.0,2.0,98,0.00,,,0.00,Wunderground v.1.15,2013-03-02 08:20:00,
2013-03-02 00:25:00,45.5,45.0,30.31,WSW,237,1.0,2.0,98,0.00,,,0.00,Wunderground v.1.15,2013-03-02 08:25:00,
2013-03-02 00:35:00,45.4,44.9,30.31,SSE,148,3.0,4.0,98,0.00,,,0.00,Wunderground v.1.15,2013-03-02 08:35:00,
2013-03-02 00:40:00,45.4,44.9,30.31,SSE,148,2.0,2.0,98,0.00,,,0.00,Wunderground v.1.15,2013-03-02 08:40:00,
2013-03-02 00:45:00,45.6,45.1,30.31,SSE,148,0.0,2.0,98,0.00,,,0.00,Wunderground v.1.15,2013-03-02 08:45:00,
2013-03-02 00:50:00,45.8,45.3,30.31,SSE,148,0.0,1.0,98,0.00,,,0.00,Wunderground v.1.15,2013-03-02 08:50:00,
2013-03-02 00:55:00,45.8,45.3,30.31,SSE,148,0.0,1.0,98,0.00,,,0.00,Wunderground v.1.15,2013-03-02 08:55:00,
2013-03-02 00:59:00,45.7,45.2,30.30,SSE,148,0.0,1.0,98,0.00,,,0.00,Wunderground v.1.15,2013-03-02 08:59:00,
2013-03-02 01:04:00,45.3,44.8,30.31,SSE,148,0.0,1.0,98,0.00,,,0.00,Wunderground v.1.15,2013-03-02 09:04:00,
2013-03-02 01:09:00,45.1,44.3,30.31,SSE,148,0.0,0.0,97,0.00,,,0.00,Wunderground v.1.15,2013-03-02 09:09:00,
2013-03-02 01:14:00,45.0,44.5,30.31,SSE,148,0.0,1.0,98,0.00,,,0.00,Wunderground v.1.15,2013-03-02 09:14:00,
2013-03-02 01:20:00,45.1,44.6,30.30,SSE,153,1.0,4.0,98,0.00,,,0.00,Wunderground v.1.15,2013-03-02 09:20:00,
2013-03-02 01:25:00,44.9,44.4,30.30,SE,146,2.0,4.0,98,0.00,,,0.00,Wunderground v.1.15,2013-03-02 09:25:00,
2013-03-02 01:30:00,44.8,44.3,30.30,SE,146,1.0,1.0,98,0.00,,,0.00,Wunderground v.1.15,2013-03-02 09:30:00,
2013-03-02 01:35:00,44.9,44.4,30.31,SE,146,0.0,1.0,98,0.00,,,0.00,Wunderground v.1.15,2013-03-02 09:35:00,
2013-03-02 01:40:00,45.0,44.5,30.31,SE,146,1.0,1.0,98,0.00,,,0.00,Wunderground v.1.15,2013-03-02 09:40:00,
2013-03-02 01:45:00,45.0,44.5,30.30,SE,146,1.0,2.0,98,0.00,,,0.00,Wunderground v.1.15,2013-03-02 09:45:00,
2013-03-02 01:50:00,45.0,44.5,30.30,SE,146,0.0,1.0,98,0.00,,,0.00,Wunderground v.1.15,2013-03-02 09:50:00,
2013-03-02 01:55:00,44.8,44.3,30.29,SE,146,0.0,1.0,98,0.00,,,0.00,Wunderground v.1.15,2013-03-02 09:55:00,
2013-03-02 02:00:00,44.7,43.9,30.30,SE,146,0.0,1.0,97,0.00,,,0.00,Wunderground v.1.15,2013-03-02 10:00:00,
2013-03-02 02:05:00,44.6,43.8,30.29,SE,146,0.0,1.0,97,0.00,,,0.00,Wunderground v.1.15,2013-03-02 10:05:00,
2013-03-02 02:09:00,44.5,44.0,30.30,SE,146,1.0,1.0,98,0.00,,,0.00,Wunderground v.1.15,2013-03-02 10:09:00,
2013-03-02 02:15:00,44.3,43.8,30.29,SE,146,2.0,2.0,98,0.00,,,0.00,Wunderground v.1.15,2013-03-02 10:15:00,
2013-03-02 02:20:00,44.4,43.9,30.29,SE,146,1.0,1.0,98,0.00,,,0.00,Wunderground v.1.15,2013-03-02 10:20:00,
2013-03-02 02:25:00,44.3,43.8,30.29,SE,139,0.0,1.0,98,0.00,,,0.00,Wunderground v.1.15,2013-03-02 10:25:00,
2013-03-02 02:30:00,44.3,43.8,30.28,SE,138,0.0,1.0,98,0.00,,,0.00,Wunderground v.1.15,2013-03-02 10:30:00,
2013-03-02 02:35:00,44.1,43.3,30.28,SSE,165,0.0,1.0,97,0.00,,,0.00,Wunderground v.1.15,2013-03-02 10:35:00,
2013-03-02 02:40:00,43.9,43.1,30.28,SSE,165,0.0,0.0,97,0.00,,,0.00,Wunderground v.1.15,2013-03-02 10:40:00,
2013-03-02 02:45:00,43.9,43.4,30.28,SSE,165,0.0,0.0,98,0.00,,,0.00,Wunderground v.1.15,2013-03-02 10:45:00,
2013-03-02 02:49:00,43.9,43.4,30.27,SSE,165,0.0,0.0,98,0.00,,,0.00,Wunderground v.1.15,2013-03-02 10:49:00,
2013-03-02 02:54:00,43.9,43.4,30.27,SSE,165,0.0,0.0,98,0.00,,,0.00,Wunderground v.1.15,2013-03-02 10:54:00,
2013-03-02 02:59:00,44.0,43.5,30.27,SSE,165,0.0,0.0,98,0.00,,,0.00,Wunderground v.1.15,2013-03-02 10:59:00,
2013-03-02 03:05:00,44.0,43.5,30.27,SSE,165,0.0,0.0,98,0.00,,,0.00,Wunderground v.1.15,2013-03-02 11:05:00,
2013-03-02 03:10:00,44.0,43.5,30.27,SSE,165,0.0,0.0,98,0.00,,,0.00,Wunderground v.1.15,2013-03-02 11:10:00,
2013-03-02 03:15:00,44.1,43.6,30.26,SSE,165,0.0,0.0,98,0.00,,,0.00,Wunderground v.1.15,2013-03-02 11:15:00,
2013-03-02 03:20:00,44.1,43.6,30.26,SSE,165,0.0,0.0,98,0.00,,,0.00,Wunderground v.1.15,2013-03-02 11:20:00,
2013-03-02 03:25:00,44.2,43.7,30.26,SSE,165,0.0,0.0,98,0.00,,,0.00,Wunderground v.1.15,2013-03-02 11:25:00,
2013-03-02 03:34:00,44.0,43.5,30.26,SSE,165,0.0,1.0,98,0.00,,,0.00,Wunderground v.1.15,2013-03-02 11:34:00,
2013-03-02 03:39:00,43.9,43.4,30.25,SSE,165,0.0,0.0,98,0.00,,,0.00,Wunderground v.1.15,2013-03-02 11:39:00,
2013-03-02 03:44:00,43.8,43.3,30.25,SSE,165,0.0,0.0,98,0.00,,,0.00,Wunderground v.1.15,2013-03-02 11:44:00,
2013-03-02 03:50:00,43.8,43.3,30.26,SSE,165,0.0,1.0,98,0.00,,,0.00,Wunderground v.1.15,2013-03-02 11:50:00,
2013-03-02 03:55:00,43.7,43.2,30.25,SSE,165,1.0,2.0,98,0.00,,,0.00,Wunderground v.1.15,2013-03-02 11:55:00,
2013-03-02 04:00:00,43.6,43.1,30.25,SSE,165,1.0,1.0,98,0.00,,,0.00,Wunderground v.1.15,2013-03-02 12:00:00,
2013-03-02 04:10:00,43.5,43.0,30.24,SSE,165,0.0,0.0,98,0.00,,,0.00,Wunderground v.1.15,2013-03-02 12:10:00,
2013-03-02 04:14:00,43.6,43.1,30.25,SSE,165,1.0,1.0,98,0.00,,,0.00,Wunderground v.1.15,2013-03-02 12:14:00,
2013-03-02 04:20:00,43.5,43.0,30.25,SSE,165,1.0,1.0,98,0.00,,,0.00,Wunderground v.1.15,2013-03-02 12:20:00,
2013-03-02 04:25:00,43.5,43.0,30.25,SSE,165,0.0,1.0,98,0.00,,,0.00,Wunderground v.1.15,2013-03-02 12:25:00,
2013-03-02 04:30:00,43.5,43.0,30.25,SSE,165,0.0,0.0,98,0.00,,,0.00,Wunderground v.1.15,2013-03-02 12:30:00,
2013-03-02 04:35:00,43.4,42.9,30.25,SSE,165,0.0,0.0,98,0.00,,,0.00,Wunderground v.1.15,2013-03-02 12:35:00,
2013-03-02 04:40:00,43.4,42.9,30.25,SSE,165,0.0,0.0,98,0.00,,,0.00,Wunderground v.1.15,2013-03-02 12:40:00,
2013-03-02 04:45:00,43.4,42.9,30.25,SSE,165,0.0,0.0,98,0.00,,,0.00,Wunderground v.1.15,2013-03-02 12:45:00,
2013-03-02 04:50:00,43.4,42.9,30.25,SSE,165,0.0,0.0,98,0.00,,,0.00,Wunderground v.1.15,2013-03-02 12:50:00,
2013-03-02 04:55:00,43.5,43.0,30.25,SSE,165,0.0,0.0,98,0.00,,,0.00,Wunderground v.1.15,2013-03-02 12:55:00,
2013-03-02 05:00:00,43.5,43.0,30.24,SSE,165,0.0,0.0,98,0.00,,,0.00,Wunderground v.1.15,2013-03-02 13:00:00,
2013-03-02 05:05:00,43.7,43.2,30.25,SSE,165,0.0,0.0,98,0.00,,,0.00,Wunderground v.1.15,2013-03-02 13:05:00,
2013-03-02 05:14:00,44.0,43.5,30.24,SSE,165,1.0,1.0,98,0.00,,,0.00,Wunderground v.1.15,2013-03-02 13:14:00,
2013-03-02 05:20:00,44.0,43.5,30.24,SSE,165,0.0,0.0,98,0.00,,,0.00,Wunderground v.1.15,2013-03-02 13:20:00,
2013-03-02 05:25:00,43.9,43.4,30.25,SSE,165,0.0,0.0,98,0.00,,,0.00,Wunderground v.1.15,2013-03-02 13:25:00,
2013-03-02 05:30:00,43.8,43.3,30.24,SSE,165,0.0,0.0,98,0.00,,,0.00,Wunderground v.1.15,2013-03-02 13:30:00,
2013-03-02 05:35:00,43.9,43.4,30.24,SSE,165,0.0,0.0,98,0.00,,,0.00,Wunderground v.1.15,2013-03-02 13:35:00,
2013-03-02 05:40:00,44.2,43.9,30.24,SSE,165,0.0,2.0,99,0.00,,,0.00,Wunderground v.1.15,2013-03-02 13:40:00,
2013-03-02 05:45:00,44.5,44.2,30.24,SSE,165,1.0,2.0,99,0.00,,,0.00,Wunderground v.1.15,2013-03-02 13:45:00,
2013-03-02 05:55:00,44.6,44.1,30.24,SSE,165,1.0,1.0,98,0.00,,,0.00,Wunderground v.1.15,2013-03-02 13:55:00,
2013-03-02 06:05:00,44.6,44.1,30.24,SSE,165,0.0,0.0,98,0.00,,,0.00,Wunderground v.1.15,2013-03-02 14:05:00,
2013-03-02 06:10:00,44.6,44.1,30.24,SSE,165,0.0,0.0,98,0.00,,,0.00,Wunderground v.1.15,2013-03-02 14:10:00,
2013-03-02 06:15:00,44.2,43.7,30.24,SSE,165,0.0,0.0,98,0.00,,,0.00,Wunderground v.1.15,2013-03-02 14:15:00,
2013-03-02 06:24:00,43.9,43.4,30.24,SSE,165,0.0,1.0,98,0.00,,,0.00,Wunderground v.1.15,2013-03-02 14:24:00,
2013-03-02 06:29:00,44.0,43.7,30.24,SSE,165,0.0,0.0,99,0.00,,,0.00,Wunderground v.1.15,2013-03-02 14:29:00,
2013-03-02 06:35:00,44.0,43.5,30.24,SSE,165,0.0,0.0,98,0.00,,,0.00,Wunderground v.1.15,2013-03-02 14:35:00,
2013-03-02 06:40:00,44.0,43.5,30.24,SSE,165,0.0,0.0,98,0.00,,,0.00,Wunderground v.1.15,2013-03-02 14:40:00,
2013-03-02 06:45:00,43.9,43.4,30.24,SSE,165,0.0,0.0,98,0.00,,,0.00,Wunderground v.1.15,2013-03-02 14:45:00,
2013-03-02 06:50:00,43.8,43.3,30.24,SSE,165,0.0,0.0,98,0.00,,,0.00,Wunderground v.1.15,2013-03-02 14:50:00,
2013-03-02 06:55:00,43.8,43.3,30.24,SSE,165,0.0,0.0,98,0.00,,,0.00,Wunderground v.1.15,2013-03-02 14:55:00,
2013-03-02 07:00:00,43.7,43.2,30.24,SSE,165,0.0,0.0,98,0.00,,,0.00,Wunderground v.1.15,2013-03-02 15:00:00,
2013-03-02 07:05:00,43.8,43.3,30.24,SSE,165,0.0,1.0,98,0.00,,,0.00,Wunderground v.1.15,2013-03-02 15:05:00,
2013-03-02 07:10:00,43.8,43.3,30.24,SSE,165,1.0,1.0,98,0.00,,,0.00,Wunderground v.1.15,2013-03-02 15:10:00,
2013-03-02 07:15:00,43.8,43.3,30.23,SSE,167,0.0,1.0,98,0.00,,,0.00,Wunderground v.1.15,2013-03-02 15:15:00,
2013-03-02 07:19:00,43.8,43.3,30.23,South,171,0.0,0.0,98,0.00,,,0.00,Wunderground v.1.15,2013-03-02 15:19:00,
2013-03-02 07:24:00,43.7,43.2,30.23,South,171,0.0,0.0,98,0.00,,,0.00,Wunderground v.1.15,2013-03-02 15:24:00,
2013-03-02 07:30:00,43.6,43.1,30.23,South,171,0.0,1.0,98,0.00,,,0.00,Wunderground v.1.15,2013-03-02 15:30:00,
2013-03-02 07:35:00,43.6,43.3,30.23,South,171,0.0,1.0,99,0.00,,,0.00,Wunderground v.1.15,2013-03-02 15:35:00,
2013-03-02 07:40:00,43.6,43.3,30.23,South,171,0.0,2.0,99,0.00,,,0.00,Wunderground v.1.15,2013-03-02 15:40:00,
2013-03-02 07:45:00,43.5,43.2,30.23,South,171,1.0,2.0,99,0.00,,,0.00,Wunderground v.1.15,2013-03-02 15:45:00,
2013-03-02 07:50:00,43.5,43.2,30.23,South,171,2.0,2.0,99,0.00,,,0.00,Wunderground v.1.15,2013-03-02 15:50:00,
2013-03-02 07:55:00,43.4,43.1,30.23,South,171,1.0,2.0,99,0.00,,,0.00,Wunderground v.1.15,2013-03-02 15:55:00,
2013-03-02 08:00:00,43.3,42.8,30.23,South,171,0.0,0.0,98,0.00,,,0.00,Wunderground v.1.15,2013-03-02 16:00:00,
2013-03-02 08:05:00,43.3,42.8,30.23,South,171,0.0,0.0,98,0.00,,,0.00,Wunderground v.1.15,2013-03-02 16:05:00,
2013-03-02 08:10:00,43.2,42.7,30.23,South,171,0.0,0.0,98,0.00,,,0.00,Wunderground v.1.15,2013-03-02 16:10:00,
2013-03-02 08:15:00,43.2,42.9,30.23,South,171,0.0,0.0,99,0.00,,,0.00,Wunderground v.1.15,2013-03-02 16:15:00,
2013-03-02 08:20:00,43.3,43.0,30.23,South,171,1.0,1.0,99,0.00,,,0.00,Wunderground v.1.15,2013-03-02 16:20:00,
2013-03-02 08:24:00,43.2,42.7,30.23,South,171,1.0,1.0,98,0.00,,,0.00,Wunderground v.1.15,2013-03-02 16:24:00,
2013-03-02 08:30:00,43.1,42.6,30.23,South,171,0.0,0.0,98,0.00,,,0.00,Wunderground v.1.15,2013-03-02 16:30:00,
2013-03-02 08:39:00,43.4,43.1,30.23,South,171,0.0,0.0,99,0.00,,,0.00,Wunderground v.1.15,2013-03-02 16:39:00,
2013-03-02 08:45:00,43.8,43.5,30.22,South,171,1.0,2.0,99,0.00,,,0.00,Wunderground v.1.15,2013-03-02 16:45:00,
2013-03-02 08:50:00,44.1,43.8,30.22,SE,125,1.0,1.0,99,0.00,,,0.00,Wunderground v.1.15,2013-03-02 16:50:00,
2013-03-02 08:55:00,44.3,44.0,30.22,SE,125,1.0,1.0,99,0.00,,,0.00,Wunderground v.1.15,2013-03-02 16:55:00,
2013-03-02 09:00:00,44.4,44.1,30.22,SE,125,0.0,3.0,99,0.00,,,0.00,Wunderground v.1.15,2013-03-02 17:00:00,
2013-03-02 09:04:00,43.9,43.4,30.22,SE,125,1.0,3.0,98,0.00,,,0.00,Wunderground v.1.15,2013-03-02 17:04:00,
2013-03-02 09:09:00,43.7,43.2,30.22,SE,125,2.0,2.0,98,0.00,,,0.00,Wunderground v.1.15,2013-03-02 17:09:00,
2013-03-02 09:14:00,43.8,43.5,30.22,SE,125,2.0,2.0,99,0.00,,,0.00,Wunderground v.1.15,2013-03-02 17:14:00,
2013-03-02 09:20:00,43.9,43.6,30.22,SE,125,1.0,1.0,99,0.00,,,0.00,Wunderground v.1.15,2013-03-02 17:20:00,
2013-03-02 09:25:00,44.0,43.7,30.22,SE,125,0.0,1.0,99,0.00,,,0.00,Wunderground v.1.15,2013-03-02 17:25:00,
2013-03-02 09:30:00,43.9,43.6,30.22,SE,125,0.0,0.0,99,0.00,,,0.00,Wunderground v.1.15,2013-03-02 17:30:00,
2013-03-02 09:34:00,44.0,43.7,30.22,SE,125,0.0,0.0,99,0.00,,,0.00,Wunderground v.1.15,2013-03-02 17:34:00,
2013-03-02 09:39:00,44.1,43.8,30.22,SE,125,0.0,0.0,99,0.00,,,0.00,Wunderground v.1.15,2013-03-02 17:39:00,
2013-03-02 09:45:00,44.1,43.8,30.22,SE,125,0.0,0.0,99,0.00,,,0.00,Wunderground v.1.15,2013-03-02 17:45:00,
2013-03-02 09:55:00,44.3,44.0,30.22,SE,125,0.0,0.0,99,0.00,,,0.00,Wunderground v.1.15,2013-03-02 17:55:00,
2013-03-02 10:00:00,44.4,44.1,30.22,SE,125,0.0,0.0,99,0.00,,,0.00,Wunderground v.1.15,2013-03-02 18:00:00,
2013-03-02 10:04:00,44.5,44.2,30.22,SE,125,0.0,0.0,99,0.00,,,0.00,Wunderground v.1.15,2013-03-02 18:04:00,
2013-03-02 10:09:00,44.3,44.0,30.22,SE,125,0.0,2.0,99,0.00,,,0.00,Wunderground v.1.15,2013-03-02 18:09:00,
2013-03-02 10:15:00,44.0,43.7,30.21,SE,125,1.0,2.0,99,0.00,,,0.00,Wunderground v.1.15,2013-03-02 18:15:00,
2013-03-02 10:20:00,44.1,43.8,30.21,SE,127,2.0,2.0,99,0.00,,,0.00,Wunderground v.1.15,2013-03-02 18:20:00,
2013-03-02 10:25:00,44.0,43.7,30.21,SE,129,2.0,3.0,99,0.00,,,0.00,Wunderground v.1.15,2013-03-02 18:25:00,
2013-03-02 10:30:00,44.3,44.0,30.20,SE,144,3.0,3.0,99,0.00,,,0.00,Wunderground v.1.15,2013-03-02 18:30:00,
2013-03-02 10:35:00,44.3,44.0,30.20,SE,144,4.0,4.0,99,0.00,,,0.00,Wunderground v.1.15,2013-03-02 18:35:00,
2013-03-02 10:40:00,44.6,44.3,30.20,SSE,150,3.0,4.0,99,0.00,,,0.00,Wunderground v.1.15,2013-03-02 18:40:00,
2013-03-02 10:45:00,44.8,44.5,30.20,SE,134,4.0,4.0,99,0.00,,,0.00,Wunderground v.1.15,2013-03-02 18:45:00,
2013-03-02 10:55:00,44.9,44.6,30.20,SE,142,1.0,3.0,99,0.00,,,0.00,Wunderground v.1.15,2013-03-02 18:55:00,
2013-03-02 10:59:00,45.3,45.0,30.19,SE,142,1.0,1.0,99,0.00,,,0.00,Wunderground v.1.15,2013-03-02 18:59:00,
2013-03-02 11:05:00,45.4,45.1,30.20,SE,144,2.0,4.0,99,0.00,,,0.00,Wunderground v.1.15,2013-03-02 19:05:00,
2013-03-02 11:10:00,45.5,45.2,30.19,SE,133,3.0,4.0,99,0.00,,,0.00,Wunderground v.1.15,2013-03-02 19:10:00,
2013-03-02 11:15:00,45.5,45.2,30.19,ESE,121,4.0,4.0,99,0.00,,,0.00,Wunderground v.1.15,2013-03-02 19:15:00,
2013-03-02 11:20:00,46.0,45.7,30.19,SE,133,4.0,4.0,99,0.00,,,0.00,Wunderground v.1.15,2013-03-02 19:20:00,
2013-03-02 11:24:00,46.3,46.0,30.19,ESE,105,3.0,4.0,99,0.00,,,0.00,Wunderground v.1.15,2013-03-02 19:24:00,
2013-03-02 11:29:00,46.4,46.1,30.19,ESE,106,2.0,2.0,99,0.00,,,0.00,Wunderground v.1.15,2013-03-02 19:29:00,
2013-03-02 11:35:00,46.3,46.0,30.19,ESE,105,1.0,2.0,99,0.00,,,0.00,Wunderground v.1.15,2013-03-02 19:35:00,
2013-03-02 11:40:00,46.4,46.1,30.19,ESE,105,1.0,1.0,99,0.00,,,0.00,Wunderground v.1.15,2013-03-02 19:40:00,
2013-03-02 11:45:00,46.5,46.2,30.19,ESE,106,0.0,1.0,99,0.00,,,0.00,Wunderground v.1.15,2013-03-02 19:45:00,
2013-03-02 11:49:00,46.4,46.1,30.19,ESE,105,1.0,4.0,99,0.00,,,0.00,Wunderground v.1.15,2013-03-02 19:49:00,
2013-03-02 11:54:00,46.6,46.3,30.19,ESE,106,3.0,4.0,99,0.00,,,0.00,Wunderground v.1.15,2013-03-02 19:54:00,
2013-03-02 11:59:00,46.7,46.4,30.18,ESE,105,3.0,3.0,99,0.00,,,0.00,Wunderground v.1.15,2013-03-02 19:59:00,
2013-03-02 12:05:00,46.7,46.2,30.18,ESE,105,2.0,3.0,98,0.00,,,0.00,Wunderground v.1.15,2013-03-02 20:05:00,
2013-03-02 12:10:00,47.1,46.8,30.18,ESE,106,2.0,3.0,99,0.00,,,0.00,Wunderground v.1.15,2013-03-02 20:10:00,
2013-03-02 12:15:00,46.3,45.8,30.18,West,263,3.0,4.0,98,0.00,,,0.00,Wunderground v.1.15,2013-03-02 20:15:00,
2013-03-02 12:20:00,46.4,45.9,30.18,West,271,4.0,5.0,98,0.00,,,0.00,Wunderground v.1.15,2013-03-02 20:20:00,
2013-03-02 12:25:00,47.0,46.7,30.18,North,5,3.0,5.0,99,0.00,,,0.00,Wunderground v.1.15,2013-03-02 20:25:00,
2013-03-02 12:30:00,47.7,47.4,30.17,WNW,286,2.0,6.0,99,0.00,,,0.00,Wunderground v.1.15,2013-03-02 20:30:00,
2013-03-02 12:39:00,48.8,48.3,30.17,WNW,288,3.0,3.0,98,0.00,,,0.00,Wunderground v.1.15,2013-03-02 20:39:00,
2013-03-02 12:44:00,49.4,48.9,30.17,West,272,1.0,3.0,98,0.00,,,0.00,Wunderground v.1.15,2013-03-02 20:44:00,
2013-03-02 12:50:00,49.4,48.6,30.17,West,272,1.0,1.0,97,0.00,,,0.00,Wunderground v.1.15,2013-03-02 20:50:00,
2013-03-02 12:55:00,49.8,49.0,30.16,West,272,1.0,1.0,97,0.00,,,0.00,Wunderground v.1.15,2013-03-02 20:55:00,
2013-03-02 13:00:00,50.4,49.3,30.16,WSW,239,0.0,2.0,96,0.00,,,0.00,Wunderground v.1.15,2013-03-02 21:00:00,
2013-03-02 13:05:00,50.8,49.1,30.16,South,176,1.0,2.0,94,0.00,,,0.00,Wunderground v.1.15,2013-03-02 21:05:00,
2013-03-02 13:10:00,51.2,49.0,30.16,SSE,167,1.0,2.0,92,0.00,,,0.00,Wunderground v.1.15,2013-03-02 21:10:00,
2013-03-02 13:15:00,51.5,48.7,30.16,SSE,167,1.0,2.0,90,0.00,,,0.00,Wunderground v.1.15,2013-03-02 21:15:00,
2013-03-02 13:20:00,51.8,48.7,30.16,SSE,167,1.0,1.0,89,0.00,,,0.00,Wunderground v.1.15,2013-03-02 21:20:00,
2013-03-02 13:25:00,52.3,48.5,30.16,NW,307,1.0,11.0,87,0.00,,,0.00,Wunderground v.1.15,2013-03-02 21:25:00,
2013-03-02 13:29:00,51.0,48.5,30.16,NNW,337,4.0,4.0,91,0.00,,,0.00,Wunderground v.1.15,2013-03-02 21:29:00,
2013-03-02 13:35:00,50.0,48.1,30.16,WNW,294,7.0,7.0,93,0.00,,,0.01,Wunderground v.1.15,2013-03-02 21:35:00,
2013-03-02 13:40:00,49.7,48.0,30.16,WNW,298,6.0,6.0,94,0.00,,,0.01,Wunderground v.1.15,2013-03-02 21:40:00,
2013-03-02 13:45:00,49.6,47.9,30.16,NW,306,5.0,6.0,94,0.00,,,0.01,Wunderground v.1.15,2013-03-02 21:45:00,
2013-03-02 13:50:00,49.7,48.0,30.16,NW,308,5.0,5.0,94,0.00,,,0.01,Wunderground v.1.15,2013-03-02 21:50:00,
2013-03-02 13:55:00,50.1,48.7,30.16,WNW,302,4.0,5.0,95,0.00,,,0.01,Wunderground v.1.15,2013-03-02 21:55:00,
2013-03-02 13:59:00,49.8,48.1,30.16,WNW,301,4.0,4.0,94,0.00,,,0.02,Wunderground v.1.15,2013-03-02 21:59:00,
2013-03-02 14:05:00,50.0,48.6,30.16,WNW,293,4.0,5.0,95,0.00,,,0.02,Wunderground v.1.15,2013-03-02 22:05:00,
2013-03-02 14:10:00,49.9,48.5,30.16,WNW,298,4.0,5.0,95,0.06,,,0.03,Wunderground v.1.15,2013-03-02 22:10:00,
2013-03-02 14:20:00,49.3,47.6,30.16,West,271,7.0,7.0,94,0.24,,,0.05,Wunderground v.1.15,2013-03-02 22:20:00,
2013-03-02 14:25:00,49.2,47.3,30.16,West,275,9.0,11.0,93,0.10,,,0.05,Wunderground v.1.15,2013-03-02 22:25:00,
2013-03-02 14:30:00,48.5,46.3,30.17,West,280,11.0,14.0,92,0.06,,,0.06,Wunderground v.1.15,2013-03-02 22:30:00,
2013-03-02 14:35:00,47.0,44.5,30.17,West,261,14.0,14.0,91,0.06,,,0.06,Wunderground v.1.15,2013-03-02 22:35:00,
2013-03-02 14:40:00,46.7,44.5,30.17,West,273,16.0,16.0,92,0.06,,,0.06,Wunderground v.1.15,2013-03-02 22:40:00,
2013-03-02 14:45:00,46.4,44.2,30.17,West,259,16.0,16.0,92,0.04,,,0.06,Wunderground v.1.15,2013-03-02 22:45:00,
2013-03-02 14:50:00,46.1,44.2,30.17,West,265,14.0,14.0,93,0.00,,,0.06,Wunderground v.1.15,2013-03-02 22:50:00,
2013-03-02 14:55:00,45.8,43.9,30.18,West,260,14.0,15.0,93,0.00,,,0.06,Wunderground v.1.15,2013-03-02 22:55:00,
2013-03-02 15:00:00,45.5,43.6,30.18,West,272,13.0,13.0,93,0.00,,,0.06,Wunderground v.1.15,2013-03-02 23:00:00,
2013-03-02 15:05:00,45.2,43.3,30.18,WSW,252,12.0,17.0,93,0.00,,,0.06,Wunderground v.1.15,2013-03-02 23:05:00,
2013-03-02 15:10:00,44.8,42.9,30.19,West,265,13.0,16.0,93,0.00,,,0.06,Wunderground v.1.15,2013-03-02 23:10:00,
2013-03-02 15:19:00,44.2,42.3,30.19,West,271,14.0,14.0,93,0.00,,,0.06,Wunderground v.1.15,2013-03-02 23:19:00,
2013-03-02 15:24:00,44.0,42.1,30.19,West,271,14.0,14.0,93,0.00,,,0.06,Wunderground v.1.15,2013-03-02 23:24:00,
2013-03-02 15:29:00,43.9,42.0,30.19,West,268,14.0,15.0,93,0.00,,,0.06,Wunderground v.1.15,2013-03-02 23:29:00,
2013-03-02 15:35:00,43.9,42.0,30.20,West,265,15.0,19.0,93,0.00,,,0.06,Wunderground v.1.15,2013-03-02 23:35:00,
2013-03-02 15:40:00,43.7,41.8,30.20,West,275,16.0,17.0,93,0.00,,,0.06,Wunderground v.1.15,2013-03-02 23:40:00,
2013-03-02 15:45:00,43.6,41.7,30.20,West,278,16.0,17.0,93,0.00,,,0.06,Wunderground v.1.15,2013-03-02 23:45:00,
2013-03-02 15:50:00,43.5,41.6,30.20,West,267,15.0,19.0,93,0.00,,,0.06,Wunderground v.1.15,2013-03-02 23:50:00,
2013-03-02 15:55:00,43.5,41.6,30.20,West,281,14.0,19.0,93,0.00,,,0.06,Wunderground v.1.15,2013-03-02 23:55:00,
2013-03-02 15:59:00,43.5,41.6,30.20,WNW,283,13.0,13.0,93,0.00,,,0.06,Wunderground v.1.15,2013-03-02 23:59:00,
2013-03-02 16:04:00,43.4,41.5,30.20,West,268,13.0,13.0,93,0.00,,,0.06,Wunderground v.1.15,2013-03-03 00:04:00,
2013-03-02 16:09:00,43.4,41.5,30.20,West,266,12.0,12.0,93,0.00,,,0.07,Wunderground v.1.15,2013-03-03 00:09:00,
2013-03-02 16:14:00,43.3,41.4,30.20,West,263,11.0,12.0,93,0.00,,,0.07,Wunderground v.1.15,2013-03-03 00:14:00,
2013-03-02 16:20:00,43.3,41.4,30.21,West,275,10.0,11.0,93,0.00,,,0.07,Wunderground v.1.15,2013-03-03 00:20:00,
2013-03-02 16:25:00,43.3,41.4,30.21,West,271,10.0,14.0,93,0.00,,,0.07,Wunderground v.1.15,2013-03-03 00:25:00,
2013-03-02 16:30:00,43.2,41.3,30.20,West,271,10.0,10.0,93,0.00,,,0.07,Wunderground v.1.15,2013-03-03 00:30:00,
2013-03-02 16:35:00,43.4,41.2,30.20,West,269,10.0,13.0,92,0.00,,,0.08,Wunderground v.1.15,2013-03-03 00:35:00,
2013-03-02 16:40:00,43.6,41.1,30.21,West,279,12.0,13.0,91,0.00,,,0.08,Wunderground v.1.15,2013-03-03 00:40:00,
2013-03-02 16:45:00,43.5,41.0,30.21,West,279,14.0,18.0,91,0.00,,,0.08,Wunderground v.1.15,2013-03-03 00:45:00,
2013-03-02 16:55:00,43.5,41.0,30.21,West,279,14.0,16.0,91,0.00,,,0.08,Wunderground v.1.15,2013-03-03 00:55:00,
2013-03-02 17:00:00,43.4,40.9,30.21,West,275,13.0,13.0,91,0.00,,,0.08,Wunderground v.1.15,2013-03-03 01:00:00,
2013-03-02 17:05:00,43.5,40.8,30.21,West,265,13.0,13.0,90,0.00,,,0.08,Wunderground v.1.15,2013-03-03 01:05:00,
2013-03-02 17:10:00,43.5,40.8,30.21,West,267,13.0,13.0,90,0.00,,,0.08,Wunderground v.1.15,2013-03-03 01:10:00,
2013-03-02 17:15:00,43.6,40.9,30.21,West,267,12.0,13.0,90,0.00,,,0.08,Wunderground v.1.15,2013-03-03 01:15:00,
2013-03-02 17:19:00,43.4,40.7,30.21,West,267,12.0,12.0,90,0.00,,,0.08,Wunderground v.1.15,2013-03-03 01:19:00,
2013-03-02 17:24:00,43.4,40.7,30.21,West,271,11.0,12.0,90,0.00,,,0.08,Wunderground v.1.15,2013-03-03 01:24:00,
2013-03-02 17:29:00,43.4,40.7,30.22,WNW,283,12.0,16.0,90,0.00,,,0.08,Wunderground v.1.15,2013-03-03 01:29:00,
2013-03-02 17:35:00,43.5,40.8,30.22,West,276,13.0,16.0,90,0.00,,,0.08,Wunderground v.1.15,2013-03-03 01:35:00,
2013-03-02 17:40:00,43.4,40.9,30.22,West,278,13.0,13.0,91,0.00,,,0.08,Wunderground v.1.15,2013-03-03 01:40:00,
2013-03-02 17:45:00,43.4,40.9,30.22,West,276,12.0,13.0,91,0.00,,,0.08,Wunderground v.1.15,2013-03-03 01:45:00,
2013-03-02 17:49:00,43.3,40.8,30.22,West,273,12.0,12.0,91,0.00,,,0.08,Wunderground v.1.15,2013-03-03 01:49:00,
2013-03-02 17:54:00,43.3,40.8,30.22,West,278,12.0,12.0,91,0.00,,,0.08,Wunderground v.1.15,2013-03-03 01:54:00,
2013-03-02 17:59:00,43.4,40.7,30.22,WNW,284,13.0,13.0,90,0.00,,,0.08,Wunderground v.1.15,2013-03-03 01:59:00,
2013-03-02 18:05:00,43.4,40.7,30.23,West,281,13.0,16.0,90,0.00,,,0.08,Wunderground v.1.15,2013-03-03 02:05:00,
2013-03-02 18:10:00,43.4,40.7,30.23,West,272,13.0,13.0,90,0.00,,,0.08,Wunderground v.1.15,2013-03-03 02:10:00,
2013-03-02 18:14:00,43.4,40.7,30.23,West,275,12.0,14.0,90,0.00,,,0.08,Wunderground v.1.15,2013-03-03 02:14:00,
2013-03-02 18:20:00,43.4,40.7,30.23,West,273,11.0,11.0,90,0.00,,,0.08,Wunderground v.1.15,2013-03-03 02:20:00,
2013-03-02 18:25:00,43.2,40.8,30.23,West,267,11.0,14.0,91,0.00,,,0.08,Wunderground v.1.15,2013-03-03 02:25:00,
2013-03-02 18:30:00,43.2,40.8,30.23,West,267,10.0,10.0,91,0.00,,,0.08,Wunderground v.1.15,2013-03-03 02:30:00,
2013-03-02 18:35:00,43.1,40.7,30.23,West,281,9.0,10.0,91,0.00,,,0.08,Wunderground v.1.15,2013-03-03 02:35:00,
2013-03-02 18:40:00,43.0,40.8,30.23,West,268,9.0,9.0,92,0.00,,,0.08,Wunderground v.1.15,2013-03-03 02:40:00,
2013-03-02 18:45:00,43.1,40.9,30.23,West,265,10.0,10.0,92,0.00,,,0.08,Wunderground v.1.15,2013-03-03 02:45:00,
2013-03-02 18:55:00,43.0,40.6,30.23,WNW,284,9.0,10.0,91,0.00,,,0.08,Wunderground v.1.15,2013-03-03 02:55:00,
2013-03-02 19:00:00,43.0,40.6,30.23,West,270,9.0,11.0,91,0.00,,,0.08,Wunderground v.1.15,2013-03-03 03:00:00,
2013-03-02 19:05:00,42.9,40.5,30.23,West,274,9.0,14.0,91,0.00,,,0.08,Wunderground v.1.15,2013-03-03 03:05:00,
2013-03-02 19:10:00,43.0,40.6,30.24,West,275,10.0,10.0,91,0.00,,,0.08,Wunderground v.1.15,2013-03-03 03:10:00,
2013-03-02 19:15:00,43.0,40.6,30.24,West,266,11.0,11.0,91,0.00,,,0.08,Wunderground v.1.15,2013-03-03 03:15:00,
2013-03-02 19:25:00,43.0,40.6,30.24,West,273,12.0,13.0,91,0.00,,,0.08,Wunderground v.1.15,2013-03-03 03:25:00,
2013-03-02 19:30:00,43.0,40.3,30.24,West,264,12.0,12.0,90,0.00,,,0.08,Wunderground v.1.15,2013-03-03 03:30:00,
2013-03-02 19:35:00,42.9,40.2,30.24,West,269,10.0,12.0,90,0.00,,,0.08,Wunderground v.1.15,2013-03-03 03:35:00,
2013-03-02 19:40:00,43.0,40.3,30.24,West,268,9.0,10.0,90,0.00,,,0.08,Wunderground v.1.15,2013-03-03 03:40:00,
2013-03-02 19:45:00,42.9,40.2,30.24,West,272,10.0,11.0,90,0.00,,,0.08,Wunderground v.1.15,2013-03-03 03:45:00,
2013-03-02 19:54:00,42.7,40.0,30.24,West,271,10.0,15.0,90,0.00,,,0.08,Wunderground v.1.15,2013-03-03 03:54:00,
2013-03-02 19:59:00,42.6,40.2,30.25,West,277,12.0,12.0,91,0.00,,,0.08,Wunderground v.1.15,2013-03-03 03:59:00,
2013-03-02 20:05:00,42.7,40.0,30.25,West,269,13.0,13.0,90,0.00,,,0.08,Wunderground v.1.15,2013-03-03 04:05:00,
2013-03-02 20:10:00,42.6,40.2,30.25,WNW,288,12.0,16.0,91,0.00,,,0.08,Wunderground v.1.15,2013-03-03 04:10:00,
2013-03-02 20:15:00,42.6,40.2,30.25,West,263,12.0,16.0,91,0.00,,,0.08,Wunderground v.1.15,2013-03-03 04:15:00,
2013-03-02 20:20:00,42.5,40.1,30.25,West,269,12.0,12.0,91,0.00,,,0.08,Wunderground v.1.15,2013-03-03 04:20:00,
2013-03-02 20:25:00,42.4,40.0,30.25,West,262,11.0,12.0,91,0.00,,,0.08,Wunderground v.1.15,2013-03-03 04:25:00,
2013-03-02 20:30:00,42.4,40.0,30.25,West,269,10.0,10.0,91,0.00,,,0.08,Wunderground v.1.15,2013-03-03 04:30:00,
2013-03-02 20:40:00,42.2,39.8,30.25,West,270,9.0,9.0,91,0.00,,,0.08,Wunderground v.1.15,2013-03-03 04:40:00,
2013-03-02 20:45:00,42.1,39.7,30.25,West,271,7.0,9.0,91,0.00,,,0.08,Wunderground v.1.15,2013-03-03 04:45:00,
2013-03-02 20:50:00,42.2,39.8,30.25,WNW,282,6.0,8.0,91,0.00,,,0.08,Wunderground v.1.15,2013-03-03 04:50:00,
2013-03-02 20:55:00,42.2,39.8,30.25,West,263,6.0,8.0,91,0.00,,,0.08,Wunderground v.1.15,2013-03-03 04:55:00,
2013-03-02 21:00:00,42.1,39.7,30.25,West,274,6.0,10.0,91,0.00,,,0.09,Wunderground v.1.15,2013-03-03 05:00:00,
2013-03-02 21:10:00,41.9,39.2,30.25,West,274,9.0,9.0,90,0.08,,,0.10,Wunderground v.1.15,2013-03-03 05:10:00,
2013-03-02 21:14:00,41.9,39.2,30.25,West,269,9.0,9.0,90,0.05,,,0.10,Wunderground v.1.15,2013-03-03 05:14:00,
2013-03-02 21:20:00,41.9,39.2,30.25,West,275,9.0,9.0,90,0.00,,,0.10,Wunderground v.1.15,2013-03-03 05:20:00,
2013-03-02 21:25:00,41.8,39.4,30.25,West,280,9.0,10.0,91,0.00,,,0.11,Wunderground v.1.15,2013-03-03 05:25:00,
2013-03-02 21:30:00,41.7,39.3,30.25,West,269,9.0,9.0,91,0.00,,,0.11,Wunderground v.1.15,2013-03-03 05:30:00,
2013-03-02 21:35:00,41.8,39.4,30.26,West,273,9.0,10.0,91,0.00,,,0.11,Wunderground v.1.15,2013-03-03 05:35:00,
2013-03-02 21:40:00,41.9,39.5,30.26,WNW,282,9.0,9.0,91,0.00,,,0.11,Wunderground v.1.15,2013-03-03 05:40:00,
2013-03-02 21:45:00,42.0,39.6,30.26,WNW,282,10.0,10.0,91,0.00,,,0.11,Wunderground v.1.15,2013-03-03 05:45:00,
2013-03-02 21:50:00,42.0,39.3,30.26,West,265,9.0,9.0,90,0.00,,,0.11,Wunderground v.1.15,2013-03-03 05:50:00,
2013-03-02 21:55:00,42.1,39.4,30.26,WSW,257,9.0,9.0,90,0.00,,,0.11,Wunderground v.1.15,2013-03-03 05:55:00,
2013-03-02 22:00:00,42.0,39.3,30.26,West,269,9.0,9.0,90,0.00,,,0.11,Wunderground v.1.15,2013-03-03 06:00:00,
2013-03-02 22:05:00,41.9,39.2,30.27,West,271,9.0,9.0,90,0.00,,,0.11,Wunderground v.1.15,2013-03-03 06:05:00,
2013-03-02 22:10:00,41.8,39.1,30.27,WNW,288,9.0,9.0,90,0.00,,,0.11,Wunderground v.1.15,2013-03-03 06:10:00,
2013-03-02 22:15:00,41.8,39.1,30.27,WSW,257,9.0,9.0,90,0.00,,,0.11,Wunderground v.1.15,2013-03-03 06:15:00,
2013-03-02 22:20:00,41.7,39.0,30.27,West,271,8.0,8.0,90,0.00,,,0.11,Wunderground v.1.15,2013-03-03 06:20:00,
2013-03-02 22:25:00,41.7,39.0,30.27,West,265,7.0,8.0,90,0.00,,,0.11,Wunderground v.1.15,2013-03-03 06:25:00,
2013-03-02 22:30:00,41.6,38.9,30.27,WSW,257,7.0,8.0,90,0.00,,,0.11,Wunderground v.1.15,2013-03-03 06:30:00,
2013-03-02 22:34:00,41.6,38.9,30.27,West,273,7.0,8.0,90,0.00,,,0.11,Wunderground v.1.15,2013-03-03 06:34:00,
2013-03-02 22:40:00,41.5,38.8,30.27,West,280,7.0,10.0,90,0.00,,,0.11,Wunderground v.1.15,2013-03-03 06:40:00,
2013-03-02 22:45:00,41.6,38.6,30.27,West,278,7.0,10.0,89,0.00,,,0.11,Wunderground v.1.15,2013-03-03 06:45:00,
2013-03-02 22:50:00,41.5,38.2,30.27,West,265,7.0,7.0,88,0.00,,,0.11,Wunderground v.1.15,2013-03-03 06:50:00,
2013-03-02 22:55:00,41.5,38.2,30.27,West,261,7.0,9.0,88,0.00,,,0.11,Wunderground v.1.15,2013-03-03 06:55:00,
2013-03-02 23:00:00,41.4,38.1,30.27,West,273,7.0,7.0,88,0.00,,,0.11,Wunderground v.1.15,2013-03-03 07:00:00,
2013-03-02 23:05:00,41.3,38.0,30.27,West,263,6.0,7.0,88,0.00,,,0.11,Wunderground v.1.15,2013-03-03 07:05:00,
2013-03-02 23:10:00,41.2,37.9,30.27,West,266,6.0,6.0,88,0.00,,,0.11,Wunderground v.1.15,2013-03-03 07:10:00,
2013-03-02 23:15:00,41.3,38.0,30.27,West,260,6.0,6.0,88,0.00,,,0.11,Wunderground v.1.15,2013-03-03 07:15:00,
2013-03-02 23:20:00,41.2,37.9,30.27,WSW,258,5.0,5.0,88,0.00,,,0.11,Wunderground v.1.15,2013-03-03 07:20:00,
2013-03-02 23:25:00,41.2,37.6,30.27,West,269,5.0,5.0,87,0.00,,,0.11,Wunderground v.1.15,2013-03-03 07:25:00,
2013-03-02 23:29:00,41.2,37.6,30.27,West,259,6.0,6.0,87,0.00,,,0.11,Wunderground v.1.15,2013-03-03 07:29:00,
2013-03-02 23:34:00,41.2,37.3,30.27,West,268,5.0,6.0,86,0.00,,,0.11,Wunderground v.1.15,2013-03-03 07:34:00,
2013-03-02 23:40:00,41.2,37.3,30.27,WSW,254,5.0,5.0,86,0.00,,,0.11,Wunderground v.1.15,2013-03-03 07:40:00,
2013-03-02 23:44:00,41.2,37.3,30.28,WSW,257,4.0,5.0,86,0.00,,,0.11,Wunderground v.1.15,2013-03-03 07:44:00,
2013-03-02 23:50:00,41.1,37.2,30.28,WSW,238,3.0,3.0,86,0.00,,,0.11,Wunderground v.1.15,2013-03-03 07:50:00,
2013-03-02 23:55:00,41.1,37.2,30.28,West,263,3.0,3.0,86,0.00,,,0.11,Wunderground v.1.15,2013-03-03 07:55:00,